This is the latest recevied weather packets stored in our database for station/object KR4KUV. If no packets are shown the sender has not sent any weather packets the latest 10 day(s).
| Time | Temp. | Humidity | Pressure | Rain* | Wind** | Luminosity | Snow |
|---|---|---|---|---|---|---|---|
| 1787754767 | 24.44° C | 88% | 1020.9 hPa | 0 mm | - | 147 W/m² | - |
| 1787754464 | 24.44° C | 87% | 1021 hPa | 0 mm | - | 311 W/m² | - |
| 1787754159 | 24.44° C | 87% | 1020.9 hPa | 0 mm | - | 129 W/m² | - |
| 1787753854 | 24.44° C | 88% | 1021.1 hPa | 0 mm | - | 122 W/m² | - |
| 1787753553 | 24.44° C | 86% | 1021.1 hPa | 0 mm | - | 120 W/m² | - |
| 1787753252 | 23.89° C | 89% | 1021.3 hPa | 0 mm | - | 123 W/m² | - |
| 1787752947 | 24.44° C | 87% | 1021.4 hPa | 0 mm | - | 196 W/m² | - |
| 1787752646 | 24.44° C | 86% | 1021.2 hPa | 0 mm | - | 189 W/m² | - |
| 1787752342 | 23.89° C | 88% | 1021.1 hPa | 0 mm | - | 202 W/m² | - |
| 1787752040 | 23.89° C | 86% | 1021.2 hPa | 0 mm | - | 164 W/m² | - |
| 1787751735 | 23.33° C | 87% | 1021 hPa | 0 mm | - | 180 W/m² | - |
| 1787751431 | 23.33° C | 86% | 1021.4 hPa | 0 mm | - | 159 W/m² | - |
| 1787751126 | 22.78° C | 87% | 1021.2 hPa | 0 mm | - | 159 W/m² | - |
| 1787750821 | 22.78° C | 87% | 1021.1 hPa | 0 mm | - | 161 W/m² | - |
| 1787750516 | 22.78° C | 88% | 1021.2 hPa | 0 mm | - | 163 W/m² | - |
| 1787750211 | 22.22° C | 89% | 1021.1 hPa | 0 mm | - | 155 W/m² | - |
| 1787749906 | 21.67° C | 90% | 1021 hPa | 0 mm | - | 158 W/m² | - |
| 1787749602 | 21.67° C | 90% | 1021.1 hPa | 0 mm | - | 148 W/m² | - |
| 1787749298 | 21.67° C | 90% | 1021.1 hPa | 0 mm | - | 144 W/m² | - |
| 1787748992 | 21.11° C | 92% | 1021.1 hPa | 0 mm | - | 126 W/m² | - |
| 1787748686 | 21.11° C | 93% | 1021 hPa | 0 mm | - | 102 W/m² | - |
| 1787748382 | 20.56° C | 94% | 1021.2 hPa | 0 mm | - | 111 W/m² | - |
| 1787748079 | 20.56° C | 96% | 1020.8 hPa | 0 mm | - | 100 W/m² | - |
| 1787747778 | 20° C | 97% | 1021 hPa | 0 mm | - | 101 W/m² | - |
| 1787747473 | 19.44° C | 98% | 1021 hPa | 0 mm | - | 86 W/m² | - |
* Rain latest hour (hover to see other rain measurements)
** Current wind speed in m/s (hover to see current wind gust speed)